Time;durP1;ratioP1;P1;durP2;ratioP2;P2;SDS_P1;SDS_P2;PMS_P1;PMS_P2;Temp;Humidity;BMP_temperature;BMP_pressure;BME280_temperature;BME280_humidity;BME280_pressure;Samples;Min_cycle;Max_cycle;Signal;HPM_P1;HPM_P2
2023/04/25 00:01:24;;;;;;;1.95;1.40;;;;;;;13.85;86.89;98942.66;5047668;28;20418;-88
2023/04/25 00:03:50;;;;;;;2.63;1.27;;;;;;;14.14;85.39;98909.66;5047761;28;20041;-87
2023/04/25 00:06:15;;;;;;;0.70;0.55;;;;;;;14.02;85.56;98888.94;5049230;28;20037;-86
2023/04/25 00:08:41;;;;;;;1.85;1.15;;;;;;;13.95;86.12;98903.41;5052986;28;20457;-88
2023/04/25 00:11:06;;;;;;;;;;;;;;;14.31;86.23;98985.88;5052899;28;20091;-87
2023/04/25 00:13:32;;;;;;;1.40;1.20;;;;;;;13.97;86.01;98914.78;5053339;28;19916;-87
2023/04/25 00:15:57;;;;;;;0.80;0.77;;;;;;;14.29;86.28;98976.25;5052247;28;20452;-87
2023/04/25 00:18:23;;;;;;;;;;;;;;;14.59;86.55;98992.66;5052985;28;20033;-88
2023/04/25 00:20:49;;;;;;;1.80;1.23;;;;;;;14.14;87.14;98960.03;5051622;28;19961;-86
2023/04/25 00:23:18;;;;;;;;;;;;;;;13.91;89.12;98976.88;5053827;28;20021;-87
2023/04/25 00:25:48;;;;;;;3.25;2.33;;;;;;;13.01;92.76;98902.63;5052990;28;19913;-87
2023/04/25 00:28:14;;;;;;;1.10;0.80;;;;;;;12.96;93.81;98867.53;5053257;28;20490;-88
2023/04/25 00:30:41;;;;;;;0.93;0.93;;;;;;;13.59;91.33;98938.41;5050327;28;20041;-88
2023/04/25 00:33:07;;;;;;;1.42;1.17;;;;;;;13.65;90.89;98924.06;5052650;28;20032;-87
2023/04/25 00:35:32;;;;;;;0.88;0.77;;;;;;;14.06;89.59;98967.44;5052911;28;20172;-87
2023/04/25 00:37:58;;;;;;;3.95;1.75;;;;;;;13.64;89.25;98914.38;5052332;28;20033;-87
2023/04/25 00:40:24;;;;;;;;;;;;;;;13.74;90.62;98968.75;5052657;28;20029;-87
2023/04/25 00:42:51;;;;;;;3.92;2.33;;;;;;;13.35;90.31;98869.56;5052321;28;19917;-88
2023/04/25 00:45:17;;;;;;;3.42;1.58;;;;;;;13.11;90.63;98887.22;5052613;28;20064;-87
2023/04/25 00:47:43;;;;;;;1.13;1.02;;;;;;;13.33;91.31;98907.59;5052150;28;20021;-87
2023/04/25 00:50:10;;;;;;;0.90;0.90;;;;;;;13.46;90.37;98906.22;5051864;28;20117;-87
2023/04/25 00:52:41;;;;;;;1.75;1.23;;;;;;;13.54;88.40;98866.19;5052281;28;20033;-86
2023/04/25 00:55:07;;;;;;;1.10;1.00;;;;;;;14.09;88.39;98975.28;5052442;28;20029;-86
2023/04/25 00:57:34;;;;;;;1.33;1.15;;;;;;;13.37;88.67;98896.84;5051709;28;20418;-87
2023/04/25 00:59:59;;;;;;;0.93;0.73;;;;;;;13.40;87.99;98902.03;5051671;28;20033;-86
2023/04/25 01:02:26;;;;;;;1.33;1.02;;;;;;;13.29;88.89;98901.56;5049615;28;20116;-86
2023/04/25 01:04:52;;;;;;;2.72;2.17;;;;;;;13.38;88.88;98900.38;5051754;28;20032;-86
2023/04/25 01:07:18;;;;;;;1.35;1.08;;;;;;;13.66;88.65;98961.09;5051830;28;20100;-86
2023/04/25 01:09:44;;;;;;;3.50;1.40;;;;;;;13.33;89.01;98884.66;5051316;28;20250;-86
2023/04/25 01:12:10;;;;;;;1.48;1.17;;;;;;;13.23;89.81;98873.53;5051552;28;20075;-87
2023/04/25 01:14:35;;;;;;;;;;;;;;;13.69;90.59;98933.63;5052643;28;20904;-85
2023/04/25 01:17:01;;;;;;;1.45;1.20;;;;;;;13.13;90.83;98895.13;5051729;28;20309;-85
2023/04/25 01:19:27;;;;;;;2.20;1.60;;;;;;;13.47;89.49;98923.88;5050288;28;20045;-85
2023/04/25 01:21:52;;;;;;;1.50;1.35;;;;;;;13.30;88.97;98867.97;5056441;28;20104;-85
2023/04/25 01:24:20;;;;;;;2.88;1.77;;;;;;;13.21;88.19;98845.41;5071745;28;20498;-88
2023/04/25 01:26:49;;;;;;;2.15;1.83;;;;;;;13.52;88.88;98915.75;5056057;28;20348;-87
2023/04/25 01:29:19;;;;;;;3.97;1.85;;;;;;;13.67;87.62;98907.19;5051739;28;20086;-87
2023/04/25 01:31:45;;;;;;;2.60;1.65;;;;;;;13.76;86.54;98892.66;5051188;28;20039;-87
2023/04/25 01:34:12;;;;;;;1.95;1.60;;;;;;;13.56;87.13;98877.56;5050427;28;20124;-89
2023/04/25 01:36:38;;;;;;;2.30;1.67;;;;;;;13.30;88.37;98863.56;5050913;28;20033;-87
2023/04/25 01:39:04;;;;;;;2.75;1.77;;;;;;;13.51;87.71;98871.59;5051422;28;20483;-87
2023/04/25 01:41:30;;;;;;;3.63;2.38;;;;;;;13.29;88.35;98856.53;5051159;28;20028;-87
2023/04/25 01:43:56;;;;;;;2.45;1.10;;;;;;;13.58;88.23;98894.31;5051182;28;20028;-87
2023/04/25 01:46:22;;;;;;;2.75;2.25;;;;;;;13.52;88.38;98892.75;5051008;28;20506;-87
2023/04/25 01:48:48;;;;;;;;;;;;;;;13.76;88.89;98950.97;5051697;28;20041;-87
2023/04/25 01:51:13;;;;;;;1.88;1.60;;;;;;;13.50;89.14;98901.66;5051487;28;19935;-87
2023/04/25 01:53:39;;;;;;;;;;;;;;;13.98;88.32;98964.25;5052052;28;20095;-86
2023/04/25 01:56:05;;;;;;;0.75;0.75;;;;;;;13.66;89.88;98936.41;5051137;28;19912;-86
2023/04/25 01:58:31;;;;;;;0.70;0.63;;;;;;;13.52;89.06;98870.69;5050332;28;20491;-87
2023/04/25 02:00:57;;;;;;;2.60;1.15;;;;;;;13.36;89.25;98852.75;5050756;28;20025;-87
2023/04/25 02:03:22;;;;;;;;;;;;;;;14.06;88.74;98945.38;5051317;28;20032;-86
2023/04/25 02:05:48;;;;;;;3.65;1.42;;;;;;;13.78;88.35;98891.69;5051152;28;19908;-87
2023/04/25 02:08:13;;;;;;;;;;;;;;;14.22;88.55;98953.56;5050993;28;20171;-87
2023/04/25 02:10:38;;;;;;;2.17;1.85;;;;;;;13.72;89.00;98913.16;5050957;28;20015;-86
2023/04/25 02:13:05;;;;;;;;;;;;;;;13.94;90.41;98955.53;5052527;28;20494;-87
2023/04/25 02:15:31;;;;;;;2.85;2.10;;;;;;;13.39;90.70;98884.44;5053507;28;20062;-87
2023/04/25 02:17:57;;;;;;;1.58;1.33;;;;;;;13.32;92.38;98898.78;5052142;28;20048;-86
2023/04/25 02:20:24;;;;;;;2.47;1.85;;;;;;;13.44;92.66;98916.03;5052719;28;20051;-86
2023/04/25 02:22:50;;;;;;;2.47;1.67;;;;;;;13.51;92.94;98909.56;5049523;28;20099;-87
2023/04/25 02:25:16;;;;;;;4.05;2.28;;;;;;;13.35;91.99;98866.06;5052076;28;20017;-86
2023/04/25 02:27:42;;;;;;;6.80;1.88;;;;;;;13.40;91.20;98849.06;5049728;28;20065;-86
2023/04/25 02:30:08;;;;;;;4.07;2.03;;;;;;;13.74;90.28;98883.94;5052157;28;20507;-85
2023/04/25 02:32:34;;;;;;;4.07;2.28;;;;;;;13.72;89.80;98875.19;5050616;28;20048;-86
2023/04/25 02:35:03;;;;;;;2.33;0.95;;;;;;;13.92;89.55;98919.44;5050626;28;20071;-86
2023/04/25 02:37:33;;;;;;;3.70;2.08;;;;;;;14.04;89.89;98933.97;5052157;28;20495;-86
2023/04/25 02:39:59;;;;;;;4.63;3.92;;;;;;;13.56;90.66;98864.31;5051237;28;20068;-88
2023/04/25 02:42:25;;;;;;;5.10;3.95;;;;;;;13.52;90.61;98830.97;5049919;28;20559;-87
2023/04/25 02:44:51;;;;;;;2.83;2.47;;;;;;;13.71;89.94;98850.44;5050462;28;20098;-87
2023/04/25 02:47:16;;;;;;;5.88;3.05;;;;;;;13.78;89.08;98865.19;5050314;28;20467;-87
2023/04/25 02:49:41;;;;;;;;;;;;;;;14.29;88.88;98929.38;5050580;28;20040;-87
2023/04/25 02:52:07;;;;;;;3.88;2.88;;;;;;;14.12;89.33;98905.34;5050907;28;19913;-87
2023/04/25 02:54:33;;;;;;;3.33;2.45;;;;;;;13.77;89.17;98863.44;5050092;28;20068;-87
2023/04/25 02:56:58;;;;;;;4.05;2.47;;;;;;;13.68;89.21;98845.28;5050159;28;20098;-87
2023/04/25 02:59:24;;;;;;;3.75;2.30;;;;;;;13.75;89.57;98857.38;5050435;28;20097;-87
2023/04/25 03:01:49;;;;;;;32.17;3.03;;;;;;;13.78;89.61;98859.03;5049971;28;20025;-87
2023/04/25 03:04:15;;;;;;;5.05;2.47;;;;;;;14.06;88.81;98890.56;5050031;28;20025;-87
2023/04/25 03:06:40;;;;;;;;;;;;;;;14.37;89.00;98944.97;5050055;28;20029;-86
2023/04/25 03:09:06;;;;;;;6.25;3.00;;;;;;;14.01;88.48;98903.16;5049715;28;19917;-86
2023/04/25 03:11:31;;;;;;;;;;;;;;;14.35;88.78;98953.91;5050365;28;20063;-87
2023/04/25 03:13:57;;;;;;;4.18;3.05;;;;;;;14.00;88.42;98911.16;5049926;28;19920;-85
2023/04/25 03:16:22;;;;;;;4.47;2.83;;;;;;;13.80;88.76;98888.97;5049514;28;20032;-87
2023/04/25 03:18:50;;;;;;;3.58;2.30;;;;;;;13.55;89.60;98855.53;5048586;28;20045;-87
2023/04/25 03:21:15;;;;;;;7.15;3.72;;;;;;;13.60;90.60;98906.53;5049404;28;20059;-87
2023/04/25 03:23:41;;;;;;;5.60;3.97;;;;;;;13.49;91.56;98884.91;5049202;28;20021;-88
2023/04/25 03:26:06;;;;;;;5.05;2.83;;;;;;;13.49;92.15;98892.00;5049357;28;20033;-86
2023/04/25 03:28:32;;;;;;;4.70;2.90;;;;;;;13.46;91.22;98873.59;5048183;28;20033;-89
2023/04/25 03:30:57;;;;;;;6.95;2.75;;;;;;;13.39;91.64;98879.13;5049402;28;20033;-87
2023/04/25 03:33:23;;;;;;;3.83;2.78;;;;;;;13.37;92.45;98893.34;5049128;28;20025;-86
2023/04/25 03:35:49;;;;;;;8.20;5.43;;;;;;;13.57;93.51;98934.97;5049497;28;20028;-88
2023/04/25 03:38:15;;;;;;;4.70;3.45;;;;;;;13.18;94.25;98867.56;5047710;28;20037;-86
2023/04/25 03:40:41;;;;;;;8.05;3.83;;;;;;;13.38;92.96;98853.56;5049230;28;20033;-89
2023/04/25 03:43:06;;;;;;;5.43;3.10;;;;;;;13.18;93.73;98830.47;5051968;28;20033;-87
2023/04/25 03:45:32;;;;;;;5.95;4.95;;;;;;;13.88;91.94;98912.53;5051870;28;20057;-86
2023/04/25 03:47:58;;;;;;;6.85;3.22;;;;;;;13.61;91.40;98865.03;5051785;28;20421;-86
2023/04/25 03:50:23;;;;;;;6.38;3.65;;;;;;;13.63;92.22;98879.06;5052784;28;20037;-87
2023/04/25 03:52:49;;;;;;;;;;;;;;;14.15;91.25;98924.63;5054267;28;20033;-88
2023/04/25 03:55:15;;;;;;;4.70;3.83;;;;;;;13.81;91.67;98885.41;5053260;28;19974;-87
2023/04/25 03:57:41;;;;;;;6.88;4.43;;;;;;;13.84;90.96;98869.38;5052719;28;20110;-88
2023/04/25 04:00:07;;;;;;;6.03;3.92;;;;;;;13.58;90.87;98846.59;5051934;28;20538;-86
2023/04/25 04:02:34;;;;;;;8.25;3.97;;;;;;;14.26;91.15;98929.50;5053230;28;20033;-85
2023/04/25 04:05:01;;;;;;;4.93;3.28;;;;;;;14.31;90.36;98932.81;5065153;28;20462;-86
2023/04/25 04:07:26;;;;;;;5.32;3.10;;;;;;;13.82;89.70;98823.50;5067509;28;20491;-85
2023/04/25 04:09:52;;;;;;;5.35;3.63;;;;;;;13.76;89.69;98827.28;5064480;28;20040;-85
2023/04/25 04:12:17;;;;;;;4.40;2.88;;;;;;;13.97;89.74;98844.06;5053716;28;20044;-85
2023/04/25 04:14:43;;;;;;;7.10;4.07;;;;;;;13.98;89.76;98852.91;5052926;28;20033;-85
2023/04/25 04:17:09;;;;;;;9.85;3.53;;;;;;;13.94;90.22;98838.88;5053271;28;20037;-85
2023/04/25 04:19:34;;;;;;;;;;;;;;;14.49;89.88;98911.75;5052943;28;20029;-86
2023/04/25 04:22:00;;;;;;;7.97;4.95;;;;;;;14.05;89.74;98861.44;5051871;28;20015;-85
2023/04/25 04:24:26;;;;;;;6.78;3.30;;;;;;;14.20;89.21;98878.50;5052280;28;20028;-87
2023/04/25 04:26:51;;;;;;;7.93;4.55;;;;;;;14.19;88.64;98869.66;5052496;28;20747;-86
2023/04/25 04:29:20;;;;;;;2.88;2.03;;;;;;;13.98;88.27;98839.66;5053309;28;20025;-86
2023/04/25 04:31:50;;;;;;;5.43;3.63;;;;;;;13.98;89.54;98868.81;5052669;28;20017;-87
2023/04/25 04:34:17;;;;;;;6.57;4.25;;;;;;;14.11;89.64;98877.09;5073617;28;20103;-85
2023/04/25 04:36:45;;;;;;;7.45;4.75;;;;;;;14.23;89.15;98881.03;5053910;28;20037;-85
2023/04/25 04:39:11;;;;;;;5.30;2.42;;;;;;;14.19;88.77;98853.75;5052719;28;20039;-84
2023/04/25 04:41:37;;;;;;;4.35;2.88;;;;;;;14.13;87.81;98854.91;5052683;28;20490;-84
2023/04/25 04:44:03;;;;;;;5.60;4.63;;;;;;;14.24;87.85;98873.00;5052191;28;20021;-85
2023/04/25 04:46:28;;;;;;;6.88;4.35;;;;;;;14.59;88.93;98950.19;5051675;28;20107;-85
2023/04/25 04:48:56;;;;;;;;;;;;;;;14.41;90.41;98938.59;5052582;28;20447;-85
2023/04/25 04:51:21;;;;;;;10.57;5.70;;;;;;;14.10;89.58;98844.41;5051782;28;19916;-87
2023/04/25 04:53:47;;;;;;;9.60;6.13;;;;;;;14.58;90.25;98926.38;5049961;28;20509;-85
2023/04/25 04:56:14;;;;;;;6.28;2.97;;;;;;;14.62;90.49;98889.06;5045379;28;20091;-85
2023/04/25 04:58:39;;;;;;;8.32;4.47;;;;;;;14.68;89.89;98877.31;5054684;28;20107;-85
2023/04/25 05:01:05;;;;;;;8.85;6.50;;;;;;;14.71;89.79;98874.53;5062275;28;20466;-85
2023/04/25 05:03:30;;;;;;;;;;;;;;;15.11;89.82;98938.25;5052173;28;20071;-85
2023/04/25 05:05:55;;;;;;;6.22;3.45;;;;;;;15.03;88.64;98854.47;5050520;28;19916;-84
2023/04/25 05:08:21;;;;;;;5.72;4.05;;;;;;;15.28;85.92;98874.56;5052366;28;20120;-86
2023/04/25 05:10:47;;;;;;;5.43;3.92;;;;;;;15.43;86.44;98891.56;5051153;28;20057;-83
2023/04/25 05:13:12;;;;;;;6.60;4.85;;;;;;;15.51;85.66;98851.34;5051900;28;20021;-84
2023/04/25 05:15:38;;;;;;;7.07;3.78;;;;;;;15.46;84.99;98832.09;5051391;28;20094;-83
2023/04/25 05:18:03;;;;;;;11.02;5.03;;;;;;;15.64;82.66;98865.75;5050082;28;20060;-84
2023/04/25 05:20:29;;;;;;;8.23;4.53;;;;;;;15.66;82.40;98831.09;5049751;28;20028;-85
2023/04/25 05:22:54;;;;;;;6.95;4.75;;;;;;;15.35;81.48;98838.78;5052315;28;20040;-85
2023/04/25 05:25:20;;;;;;;;;;;;;;;15.51;83.82;98931.94;5051933;28;20402;-84
2023/04/25 05:27:45;;;;;;;7.30;5.25;;;;;;;15.21;84.26;98870.44;5051920;28;19912;-84
2023/04/25 05:30:11;;;;;;;10.23;4.75;;;;;;;15.58;82.45;98887.31;5051452;28;20047;-84
2023/04/25 05:32:37;;;;;;;6.68;3.63;;;;;;;15.43;81.60;98830.47;5049999;28;20044;-85
2023/04/25 05:35:02;;;;;;;5.60;3.30;;;;;;;15.32;82.24;98878.81;5051724;28;20029;-84
2023/04/25 05:37:30;;;;;;;6.55;4.63;;;;;;;15.50;81.60;98890.31;5050922;28;20025;-85
2023/04/25 05:39:56;;;;;;;8.23;3.63;;;;;;;15.56;83.49;98913.09;5051490;28;20035;-85
2023/04/25 05:42:21;;;;;;;7.07;3.30;;;;;;;15.48;82.99;98876.25;5051547;28;20111;-85
2023/04/25 05:44:47;;;;;;;;;;;;;;;16.04;82.44;98930.28;5050702;28;20084;-85
2023/04/25 05:47:12;;;;;;;5.72;4.53;;;;;;;15.34;82.37;98846.84;5051176;28;20286;-85
2023/04/25 05:49:38;;;;;;;9.18;5.05;;;;;;;15.95;83.24;98948.50;5051103;28;20039;-85
2023/04/25 05:52:03;;;;;;;9.70;3.92;;;;;;;15.74;82.99;98882.13;5051080;28;20039;-88
2023/04/25 05:54:29;;;;;;;8.98;5.18;;;;;;;15.89;82.52;98886.69;5051075;28;20487;-85
2023/04/25 05:56:57;;;;;;;6.97;4.70;;;;;;;15.66;79.96;98865.66;5051086;28;20093;-86
2023/04/25 05:59:23;;;;;;;7.78;4.47;;;;;;;15.76;80.20;98891.72;5051114;28;20029;-85
2023/04/25 06:01:48;;;;;;;10.85;4.85;;;;;;;14.99;83.21;98834.28;5051430;28;20029;-86
2023/04/25 06:04:14;;;;;;;6.63;4.10;;;;;;;15.31;82.01;98870.91;5050062;28;20037;-86
2023/04/25 06:06:39;;;;;;;8.82;4.93;;;;;;;15.51;81.37;98897.38;5050796;28;20025;-86
2023/04/25 06:09:05;;;;;;;9.73;4.30;;;;;;;15.54;80.45;98896.38;5050529;28;20048;-87
2023/04/25 06:11:30;;;;;;;6.45;4.20;;;;;;;15.15;80.57;98847.72;5051278;28;20021;-87
2023/04/25 06:13:56;;;;;;;11.77;6.63;;;;;;;15.48;80.59;98928.56;5050548;28;20118;-86
2023/04/25 06:16:22;;;;;;;8.15;4.63;;;;;;;15.32;81.94;98901.84;5051520;28;20036;-86
2023/04/25 06:18:48;;;;;;;9.65;3.75;;;;;;;15.29;82.53;98888.69;5051191;28;20414;-87
2023/04/25 06:21:14;;;;;;;5.30;3.17;;;;;;;15.43;84.32;98835.78;5050795;28;20032;-87
2023/04/25 06:23:40;;;;;;;7.32;4.13;;;;;;;16.11;82.09;98835.94;5049754;28;20041;-87
2023/04/25 06:26:05;;;;;;;6.88;4.28;;;;;;;16.52;77.81;98845.34;5050660;28;20152;-88
2023/04/25 06:28:31;;;;;;;6.28;4.10;;;;;;;17.13;76.29;98929.16;5050492;28;20099;-86
2023/04/25 06:30:56;;;;;;;8.80;4.90;;;;;;;17.18;73.60;98880.94;5063195;28;20038;-88
2023/04/25 06:33:22;;;;;;;8.90;5.18;;;;;;;17.30;72.63;98888.25;5071255;28;20040;-87
2023/04/25 06:35:47;;;;;;;6.72;4.13;;;;;;;17.42;73.04;98856.50;5069063;28;20033;-87
2023/04/25 06:38:13;;;;;;;9.55;5.68;;;;;;;17.89;71.97;98871.63;5071176;28;20043;-87
2023/04/25 06:40:39;;;;;;;7.10;5.95;;;;;;;17.65;71.83;98879.19;5070991;28;20038;-87
2023/04/25 06:43:04;;;;;;;17.42;6.20;;;;;;;17.59;72.05;98869.75;5064231;28;20033;-87
2023/04/25 06:45:30;;;;;;;11.93;8.00;;;;;;;17.57;71.47;98846.78;5050721;28;20123;-88
2023/04/25 06:47:56;;;;;;;9.68;6.05;;;;;;;17.82;69.76;98903.09;5050384;28;20150;-88
2023/04/25 06:50:21;;;;;;;8.70;6.45;;;;;;;17.99;69.15;98872.81;5050807;28;20411;-87
2023/04/25 06:52:47;;;;;;;9.40;6.90;;;;;;;18.14;69.88;98828.34;5051201;28;20116;-88
2023/04/25 06:55:12;;;;;;;12.02;6.05;;;;;;;17.87;71.72;98842.34;5050498;28;20029;-87
2023/04/25 06:57:38;;;;;;;9.43;6.72;;;;;;;18.74;68.25;98822.03;5049946;28;20033;-87
2023/04/25 07:00:10;;;;;;;8.27;6.18;;;;;;;19.04;66.63;98826.41;5061145;28;20039;-87
2023/04/25 07:02:36;;;;;;;8.80;6.18;;;;;;;18.86;64.70;98824.91;5068675;28;20021;-87
2023/04/25 07:05:03;;;;;;;12.50;8.07;;;;;;;18.71;66.66;98840.06;5070136;28;20537;-86
2023/04/25 07:07:30;;;;;;;10.85;7.55;;;;;;;19.21;64.91;98878.78;5070390;28;20056;-88
2023/04/25 07:09:56;;;;;;;9.02;5.90;;;;;;;19.02;63.62;98864.91;5070328;28;20052;-87
2023/04/25 07:12:21;;;;;;;12.20;8.00;;;;;;;19.25;64.81;98856.25;5068682;28;20048;-87
2023/04/25 07:14:47;;;;;;;15.45;6.57;;;;;;;19.90;62.38;98861.94;5070293;28;20093;-87
2023/04/25 07:17:13;;;;;;;11.15;7.70;;;;;;;20.13;61.21;98844.31;5072801;28;20422;-86
2023/04/25 09:16:56;;;;;;;;;;;;;;;21.77;53.34;98879.25;5098517;27;1796174;-87
2023/04/25 09:19:35;;;;;;;2.47;1.63;;;;;;;21.25;54.52;98820.34;5169447;27;20014;-89
2023/04/25 09:22:18;;;;;;;3.17;1.60;;;;;;;21.13;55.26;98828.44;5150956;27;20027;-89
2023/04/25 09:24:51;;;;;;;3.15;1.75;;;;;;;20.57;56.54;98808.22;5170306;27;20027;-90
2023/04/25 09:28:15;;;;;;;5.30;2.20;;;;;;;20.56;58.29;98871.69;5151560;27;20072;-89
2023/04/25 09:30:53;;;;;;;3.95;2.53;;;;;;;20.16;60.63;98834.25;5008911;28;20514;-89
2023/04/25 09:37:19;;;;;;;9.93;2.40;;;;;;;19.89;60.50;98823.59;5026152;28;20052;-89
2023/04/25 09:40:10;;;;;;;;;;;;;;;20.24;59.83;98865.88;5025876;28;20048;-89
2023/04/25 09:42:41;;;;;;;6.38;2.10;;;;;;;20.41;59.79;98858.50;5025870;28;19915;-90
2023/04/25 09:45:12;;;;;;;4.03;2.63;;;;;;;20.35;60.24;98836.50;5008531;28;20049;-89
2023/04/25 09:48:06;;;;;;;3.42;2.35;;;;;;;20.65;60.72;98855.94;5026363;28;20531;-89
2023/04/25 09:50:39;;;;;;;6.60;2.25;;;;;;;20.79;58.35;98865.69;5009586;28;20037;-90
2023/04/25 09:53:15;;;;;;;2.60;1.58;;;;;;;20.92;58.42;98856.69;5008268;28;21065;-90
2023/04/25 09:55:53;;;;;;;4.50;2.17;;;;;;;20.71;56.43;98824.25;5008000;28;20038;-89
2023/04/25 09:58:20;;;;;;;4.22;2.53;;;;;;;20.33;55.21;98774.19;5008399;28;20069;-89
2023/04/25 10:00:51;;;;;;;9.38;2.65;;;;;;;20.10;57.44;98802.56;5008327;28;20034;-90
2023/04/25 10:03:20;;;;;;;4.00;2.10;;;;;;;19.86;57.96;98759.56;5025230;28;20128;-90
2023/04/25 10:05:49;;;;;;;5.88;2.17;;;;;;;20.20;55.73;98774.19;5062098;28;20169;-88
2023/04/25 10:08:16;;;;;;;2.05;1.70;;;;;;;20.35;55.23;98784.78;5146634;27;20061;-89
2023/04/25 10:10:42;;;;;;;5.13;2.33;;;;;;;20.19;57.59;98793.03;5168222;27;20029;-88
2023/04/25 10:13:08;;;;;;;3.08;2.28;;;;;;;20.13;57.75;98775.56;5168703;27;20114;-89
2023/04/25 10:15:37;;;;;;;10.10;3.28;;;;;;;20.09;58.78;98752.63;5168204;27;20167;-87
2023/04/25 10:18:06;;;;;;;8.00;3.08;;;;;;;20.45;55.59;98782.31;5154158;27;20113;-87
2023/04/25 10:20:32;;;;;;;9.18;4.30;;;;;;;20.78;55.65;98805.91;5154422;27;20026;-87
2023/04/25 10:23:07;;;;;;;6.78;3.95;;;;;;;20.64;55.69;98750.59;5158500;27;20029;-91
2023/04/25 10:25:33;;;;;;;5.75;2.30;;;;;;;20.57;57.04;98770.72;5166065;27;20087;-89
2023/04/25 10:28:01;;;;;;;4.05;2.17;;;;;;;20.67;56.72;98752.22;5165142;27;20031;-87
2023/04/25 10:30:26;;;;;;;10.32;2.72;;;;;;;20.51;58.41;98723.81;5165886;27;20022;-88
2023/04/25 10:32:55;;;;;;;5.90;2.58;;;;;;;20.50;59.63;98716.75;5167946;27;20530;-88
2023/04/25 10:35:28;;;;;;;4.55;2.53;;;;;;;20.41;62.19;98740.66;5171929;27;20022;-92
2023/04/25 10:38:10;;;;;;;10.48;2.67;;;;;;;21.24;61.61;98783.81;5176220;27;20186;-92
2023/04/25 10:40:36;;;;;;;3.33;1.90;;;;;;;21.13;63.69;98745.31;5153502;27;20064;-87
2023/04/25 10:43:34;;;;;;;9.05;2.75;;;;;;;21.59;63.63;98755.34;5154859;27;20026;-90
2023/04/25 10:46:00;;;;;;;6.05;2.65;;;;;;;21.13;59.47;98692.56;5173722;27;20506;-90
2023/04/25 10:48:30;;;;;;;4.63;2.35;;;;;;;21.75;61.89;98707.59;5152341;27;20510;-90
2023/04/25 10:51:15;;;;;;;6.93;2.95;;;;;;;21.36;58.46;98714.13;5170268;27;20026;-87
2023/04/25 10:53:41;;;;;;;7.22;3.55;;;;;;;21.13;58.32;98683.66;5148256;27;20030;-85
2023/04/25 10:56:11;;;;;;;3.25;1.90;;;;;;;20.84;57.56;98678.66;5154048;27;20027;-88
2023/04/25 10:58:42;;;;;;;3.95;2.00;;;;;;;20.95;55.79;98689.44;5153658;27;20026;-85
2023/04/25 11:01:09;;;;;;;2.85;1.75;;;;;;;20.64;58.48;98675.56;5152731;27;20380;-87
2023/04/25 11:03:41;;;;;;;5.43;1.88;;;;;;;20.24;57.76;98650.81;5153397;27;20487;-90
2023/04/25 11:06:20;;;;;;;2.33;1.55;;;;;;;20.50;57.36;98724.78;5153773;27;20023;-90
2023/04/25 11:08:50;;;;;;;4.82;2.88;;;;;;;20.90;57.39;98748.75;5154297;27;20556;-92
2023/04/25 11:11:19;;;;;;;1.77;1.35;;;;;;;20.88;57.00;98682.81;5135193;27;20039;-88
2023/04/25 11:13:49;;;;;;;3.03;2.10;;;;;;;21.08;56.58;98681.31;5135478;27;20125;-85
2023/04/25 11:16:25;;;;;;;4.18;2.17;;;;;;;21.43;55.12;98705.50;5153290;27;20628;-93
2023/04/25 11:18:50;;;;;;;2.53;2.17;;;;;;;21.24;54.98;98665.81;5134918;27;20034;-88
2023/04/25 11:21:16;;;;;;;4.13;2.05;;;;;;;21.05;55.17;98674.38;5153344;27;20075;-85
2023/04/25 11:23:45;;;;;;;3.88;1.75;;;;;;;20.66;56.36;98643.34;5153051;27;20033;-87
2023/04/25 11:26:13;;;;;;;2.85;1.63;;;;;;;20.53;53.46;98629.97;5151912;27;20083;-91
2023/04/25 11:28:38;;;;;;;3.25;1.92;;;;;;;20.84;55.61;98646.50;5133232;27;20044;-88
2023/04/25 11:31:04;;;;;;;3.42;1.45;;;;;;;21.23;54.69;98641.78;5152790;27;20019;-89
2023/04/25 11:33:30;;;;;;;2.15;1.65;;;;;;;21.03;51.79;98649.50;5153378;27;20134;-89
2023/04/25 11:35:58;;;;;;;2.58;1.35;;;;;;;21.39;52.79;98689.75;5153613;27;20638;-90
2023/04/25 11:38:24;;;;;;;4.00;2.30;;;;;;;21.31;49.82;98668.88;5134457;27;20440;-85
2023/04/25 11:40:53;;;;;;;9.48;1.60;;;;;;;21.05;49.79;98617.22;5152510;27;20031;-92
2023/04/25 11:43:22;;;;;;;1.00;0.95;;;;;;;21.20;48.49;98642.03;5134318;27;20027;-86
2023/04/25 11:45:49;;;;;;;1.92;1.13;;;;;;;21.23;47.71;98637.28;5134035;27;20455;-89
2023/04/25 11:48:14;;;;;;;2.40;1.52;;;;;;;21.06;49.40;98624.28;5152967;27;20027;-91
2023/04/25 11:50:40;;;;;;;1.67;1.08;;;;;;;20.73;50.81;98564.22;5152705;27;20034;-91
2023/04/25 11:53:06;;;;;;;2.38;1.40;;;;;;;20.89;49.45;98621.03;5134503;27;20589;-87
2023/04/25 11:55:31;;;;;;;1.05;0.88;;;;;;;20.91;48.70;98603.03;5153093;27;20159;-91
2023/04/25 11:58:00;;;;;;;1.67;0.98;;;;;;;21.21;53.10;98643.72;5153074;27;20368;-91
2023/04/25 12:00:26;;;;;;;2.08;1.65;;;;;;;21.16;52.09;98587.75;5153051;27;20111;-92
2023/04/25 12:02:53;;;;;;;1.65;1.00;;;;;;;21.70;48.81;98591.69;5152888;27;20030;-92
2023/04/25 12:05:20;;;;;;;1.23;0.98;;;;;;;22.12;50.67;98639.41;5133951;27;20037;-90
2023/04/25 12:07:46;;;;;;;2.95;1.20;;;;;;;21.76;49.97;98575.09;5133402;27;20054;-89
2023/04/25 12:10:13;;;;;;;1.27;0.93;;;;;;;21.82;47.35;98605.97;5152468;27;20068;-89
2023/04/25 12:12:44;;;;;;;1.58;1.00;;;;;;;21.64;44.63;98535.81;5152836;27;20026;-92
2023/04/25 12:15:15;;;;;;;3.88;1.30;;;;;;;21.69;47.30;98551.53;5130580;27;20405;-91
2023/04/25 12:17:48;;;;;;;1.23;1.05;;;;;;;22.17;49.14;98621.13;5131774;27;20023;-90
2023/04/25 12:20:16;;;;;;;2.90;1.38;;;;;;;22.08;48.59;98627.22;5132111;27;20031;-90
2023/04/25 12:22:46;;;;;;;2.58;2.00;;;;;;;22.48;50.55;98624.06;5131777;27;20488;-89
2023/04/25 12:25:39;;;;;;;2.13;0.93;;;;;;;22.25;46.81;98575.69;5130769;27;20547;-89
2023/04/25 12:28:12;;;;;;;1.35;1.08;;;;;;;22.87;47.98;98629.81;5122339;27;20125;-90
2023/04/25 12:30:53;;;;;;;2.08;1.20;;;;;;;23.04;45.42;98591.59;5130961;27;20450;-90
2023/04/25 12:33:19;;;;;;;1.25;1.05;;;;;;;22.98;44.22;98540.19;5131427;27;20027;-94
2023/04/25 12:35:44;;;;;;;1.48;1.17;;;;;;;23.06;43.83;98560.06;5131205;27;20015;-88
2023/04/25 12:38:23;;;;;;;1.20;1.10;;;;;;;23.29;41.40;98594.94;5131467;27;20043;-95
2023/04/25 12:40:49;;;;;;;1.30;0.90;;;;;;;22.57;41.87;98552.56;5129797;27;20062;-91
2023/04/25 12:43:14;;;;;;;1.55;1.15;;;;;;;22.66;41.21;98568.78;5130293;27;20544;-92
2023/04/25 12:45:40;;;;;;;2.42;1.67;;;;;;;22.44;41.32;98547.34;5130191;27;20117;-92
2023/04/25 12:48:06;;;;;;;2.08;0.90;;;;;;;22.60;42.00;98572.00;5130107;27;20043;-88
2023/04/25 12:50:31;;;;;;;1.08;0.80;;;;;;;22.80;42.86;98570.34;5130174;27;20501;-91
2023/04/25 12:52:57;;;;;;;3.75;1.70;;;;;;;23.25;42.80;98555.84;5129588;27;20106;-90
2023/04/25 12:55:22;;;;;;;2.83;1.63;;;;;;;23.02;40.93;98538.97;5131200;27;20127;-89
2023/04/25 12:57:48;;;;;;;1.48;0.82;;;;;;;22.98;40.58;98524.06;5129996;27;20031;-92
2023/04/25 13:00:14;;;;;;;1.35;1.08;;;;;;;23.37;42.58;98525.19;5129884;27;20413;-91
2023/04/25 13:02:55;;;;;;;0.73;0.73;;;;;;;23.23;41.89;98509.38;5131455;27;20035;-96
2023/04/25 13:05:21;;;;;;;1.95;1.35;;;;;;;23.67;41.72;98574.66;5130844;27;20023;-92
2023/04/25 13:07:46;;;;;;;0.77;0.68;;;;;;;23.29;39.93;98545.66;5129633;28;20031;-90
2023/04/25 13:10:12;;;;;;;2.38;0.95;;;;;;;22.89;41.03;98531.94;5131753;27;20075;-94
2023/04/25 13:12:37;;;;;;;1.58;0.90;;;;;;;22.94;39.95;98547.66;5129944;28;20070;-92
2023/04/25 13:15:03;;;;;;;1.15;1.00;;;;;;;22.78;42.02;98518.50;5132389;27;20034;-89
2023/04/25 13:17:29;;;;;;;1.88;0.90;;;;;;;22.89;40.88;98509.53;5132916;27;20027;-93
2023/04/25 13:19:55;;;;;;;1.75;1.08;;;;;;;23.65;40.51;98541.63;5132098;27;20026;-91
2023/04/25 13:22:22;;;;;;;1.35;0.98;;;;;;;23.87;39.52;98516.38;5151184;27;20038;-92
2023/04/25 13:24:47;;;;;;;1.38;1.02;;;;;;;23.55;39.26;98516.50;5151505;27;20080;-91
2023/04/25 13:27:13;;;;;;;1.85;1.05;;;;;;;23.48;38.88;98499.19;5150624;27;20023;-91
2023/04/25 13:29:40;;;;;;;4.75;2.63;;;;;;;23.04;40.50;98502.84;5150988;27;20445;-93
2023/04/25 13:32:06;;;;;;;5.15;1.08;;;;;;;22.90;40.14;98479.00;5151466;27;20129;-91
2023/04/25 13:34:32;;;;;;;1.38;0.88;;;;;;;22.47;41.57;98488.00;5115198;27;20027;-90
2023/04/25 13:36:58;;;;;;;2.60;1.52;;;;;;;22.24;41.85;98492.56;5150813;27;20532;-91
2023/04/25 13:39:24;;;;;;;2.78;1.30;;;;;;;22.51;42.24;98559.31;5151603;27;20031;-90